Tropical Cyclones
[Index]
Season 2020-2021 Tropical Cyclone ELOISE Track Map
Season 2020-2021 Summaries (Operational Data): [AU] [SIO] [SPAC] [SH]
<<- Previous TC | 2020-2021 Season | Next TC ->>

click for intensity scale information  Lat/long Grid: Show Hide

 Date Labels: Show Hide

Operational Tropical Cyclone Data

Name: ELOISE
Number: 2112

10 Jan 2021 06:00 UTC to 25 Jan 2021 12:00 UTC

    date/time    lat    long     hPa   cat  kts
2021-01-10 06    8.2    86.5    1008         15          
2021-01-10 12    8.8    86.5    1004         15          
2021-01-11 18    9.3    86.6    1010         15          
2021-01-11 00    9.9    86.8    1010         15          
2021-01-11 06   10.5    86.3    1008         15          
2021-01-11 12   11.0    86.0    1003         15          
2021-01-11 18   11.4    85.9    1003         20          
2021-01-12 00   11.8    85.3    1004         20          
2021-01-12 06   12.1    84.7    1005         20          
2021-01-12 12   12.3    84.2    1004         20          
2021-01-12 18   12.6    82.6    1004         20          
2021-01-13 00   12.7    81.3    1004         20          
2021-01-13 06   12.8    80.4    1003         20          
2021-01-13 12   13.1    78.9    1007         20          
2021-01-13 18   13.5    77.7    1007         20          
2021-01-14 00   13.6    76.4    1004         20          
2021-01-14 06   13.6    75.1    1005         20          
2021-01-14 12   12.2    73.5    1004         20          
2021-01-14 18   11.6    72.3    1005         20          
2021-01-15 00   11.2    71.5    1004         20          
2021-01-15 06   11.5    70.2    1001         20          
2021-01-15 12   11.8    68.7    1002         20          
2021-01-15 18   12.0    67.6    1005         20          
2021-01-16 00   12.2    66.7    1002         25          
2021-01-16 06   12.4    66.0    1001         25          
2021-01-16 12   12.5    65.2    1001         25          
2021-01-16 18   12.5    64.4    1003         25          
2021-01-17 00   12.6    63.3    1000         25          
2021-01-17 06   12.6    62.1    1000         30          
2021-01-17 12   13.0    61.2    1000         30          
2021-01-17 18   13.2    59.6    1001    1    35          
2021-01-18 00   13.5    58.1     997    1    40          
2021-01-18 06   13.7    56.6     998    1    40          
2021-01-18 12   13.9    55.0     996    1    45          
2021-01-18 18   14.1    53.0     996    1    45          
2021-01-19 00   14.3    52.0     998    1    40          
2021-01-19 06   14.5    51.7     996    1    45          
2021-01-19 12   15.2    51.0     994    1    45          
2021-01-19 18   15.3    50.1     996    1    40          
2021-01-20 00   15.5    49.6     997    1    35          
2021-01-20 06   15.6    48.0    1003         30          
2021-01-20 12   15.3    46.5    1000         30          
2021-01-20 18   15.7    45.0    1001         30          
2021-01-21 00   16.2    44.0     999    1    35          
2021-01-21 06   16.7    42.8    1002    1    35          
2021-01-21 12   17.2    41.9     999    1    40          
2021-01-21 18   17.8    40.7     994    2    50          
2021-01-22 00   18.4    39.5     987    2    55          
2021-01-22 06   18.8    38.3     981    3    65          
2021-01-22 12   19.2    36.8     981    3    65          
2021-01-22 18   19.5    35.9     979    3    65          
2021-01-23 00   20.1    34.9     968    3    80          
2021-01-23 06   20.4    34.0     980    3    65          
2021-01-23 12   20.9    33.2     987    2    55          
2021-01-23 18   21.6    32.4     993    1    40          
2021-01-24 00   22.0    31.3     999         25          
2021-01-24 06   22.6    30.3    1004         20          
2021-01-24 12   23.2    29.4    1002         20          
2021-01-24 18   23.5    28.1    1004         20          
2021-01-25 00   23.9    27.3    1004         20          
2021-01-25 06   24.0    26.2    1005         20          
2021-01-25 12   24.4    25.2    1003         20          
Winds were reported as (or converted to) 10-min average.

Tropical cyclone tracks developed by Michael Bath using operational warnings and advisories and Google Maps.


Document: tropical_cyclone_eloise.htm
Updated: 7 May 2021
[Australian Severe Weather index] [Copyright Notice] [Email Contacts] [Search This Site] [Privacy Policy]


Main Index Home Page Stock Weather Photos Extreme Storms Discussion Storm News and Storm Chasing Reports Tropical Cyclones / Hurricanes / Typhoons Weather Data and Links Wild Fires / Bushfires Weather Observation Techniques Weather Picture Catalogue Tornado Pictures and Reports Stock Video Footage and DVDs for sale